sensor_id;sensor_type;location;lat;lon;timestamp;pressure;altitude;pressure_sealevel;temperature;humidity
9189;BME280;34313;50.780;6.084;2023-12-20T00:01:31;99459.47;;;7.98;100.00
9189;BME280;34313;50.780;6.084;2023-12-20T00:03:57;99478.25;;;8.07;100.00
9189;BME280;34313;50.780;6.084;2023-12-20T00:06:22;99465.72;;;7.95;100.00
9189;BME280;34313;50.780;6.084;2023-12-20T00:08:47;99475.66;;;7.88;100.00
9189;BME280;34313;50.780;6.084;2023-12-20T00:11:12;99470.13;;;7.94;100.00
9189;BME280;34313;50.780;6.084;2023-12-20T00:13:38;99469.78;;;7.83;100.00
9189;BME280;34313;50.780;6.084;2023-12-20T00:16:03;99469.06;;;7.80;100.00
9189;BME280;34313;50.780;6.084;2023-12-20T00:18:29;99481.63;;;7.73;100.00
9189;BME280;34313;50.780;6.084;2023-12-20T00:20:54;99475.66;;;7.69;100.00
9189;BME280;34313;50.780;6.084;2023-12-20T00:23:20;99475.91;;;7.65;100.00
9189;BME280;34313;50.780;6.084;2023-12-20T00:25:45;99479.50;;;7.62;100.00
9189;BME280;34313;50.780;6.084;2023-12-20T00:28:10;99477.75;;;7.63;100.00
9189;BME280;34313;50.780;6.084;2023-12-20T00:30:36;99488.78;;;7.69;100.00
9189;BME280;34313;50.780;6.084;2023-12-20T00:33:01;99489.78;;;7.67;100.00
9189;BME280;34313;50.780;6.084;2023-12-20T00:35:27;99502.72;;;7.71;100.00
9189;BME280;34313;50.780;6.084;2023-12-20T00:37:52;99498.22;;;7.73;100.00
9189;BME280;34313;50.780;6.084;2023-12-20T00:40:18;99516.16;;;7.83;100.00
9189;BME280;34313;50.780;6.084;2023-12-20T00:42:43;99503.53;;;7.72;100.00
9189;BME280;34313;50.780;6.084;2023-12-20T00:45:09;99495.09;;;7.65;100.00
9189;BME280;34313;50.780;6.084;2023-12-20T00:47:34;99509.69;;;7.52;100.00
9189;BME280;34313;50.780;6.084;2023-12-20T00:49:59;99504.28;;;7.36;100.00
9189;BME280;34313;50.780;6.084;2023-12-20T00:52:25;99514.03;;;7.13;100.00
9189;BME280;34313;50.780;6.084;2023-12-20T00:54:50;99534.16;;;6.92;100.00
9189;BME280;34313;50.780;6.084;2023-12-20T00:57:16;99522.97;;;6.68;100.00
9189;BME280;34313;50.780;6.084;2023-12-20T00:59:41;99542.16;;;6.47;100.00
9189;BME280;34313;50.780;6.084;2023-12-20T01:02:06;99543.66;;;6.32;100.00
9189;BME280;34313;50.780;6.084;2023-12-20T01:04:32;99526.72;;;6.18;100.00
9189;BME280;34313;50.780;6.084;2023-12-20T01:06:57;99544.97;;;6.20;100.00
9189;BME280;34313;50.780;6.084;2023-12-20T01:09:22;99567.69;;;6.19;100.00
9189;BME280;34313;50.780;6.084;2023-12-20T01:11:54;99567.88;;;6.15;100.00
9189;BME280;34313;50.780;6.084;2023-12-20T01:14:19;99563.00;;;6.05;100.00
9189;BME280;34313;50.780;6.084;2023-12-20T01:16:45;99559.69;;;6.00;100.00
9189;BME280;34313;50.780;6.084;2023-12-20T01:19:10;99555.88;;;5.85;100.00
9189;BME280;34313;50.780;6.084;2023-12-20T01:21:36;99571.38;;;5.68;100.00
9189;BME280;34313;50.780;6.084;2023-12-20T01:24:01;99577.84;;;5.58;100.00
9189;BME280;34313;50.780;6.084;2023-12-20T01:26:26;99569.16;;;5.56;100.00
9189;BME280;34313;50.780;6.084;2023-12-20T01:28:52;99581.50;;;5.52;100.00
9189;BME280;34313;50.780;6.084;2023-12-20T01:31:18;99578.88;;;5.52;100.00
9189;BME280;34313;50.780;6.084;2023-12-20T01:33:44;99564.53;;;5.64;100.00
9189;BME280;34313;50.780;6.084;2023-12-20T01:36:09;99559.19;;;5.67;100.00
9189;BME280;34313;50.780;6.084;2023-12-20T01:38:34;99567.72;;;5.72;100.00
9189;BME280;34313;50.780;6.084;2023-12-20T01:40:59;99555.59;;;5.69;100.00
9189;BME280;34313;50.780;6.084;2023-12-20T01:43:25;99560.44;;;5.80;100.00
9189;BME280;34313;50.780;6.084;2023-12-20T01:45:51;99568.34;;;5.79;100.00
9189;BME280;34313;50.780;6.084;2023-12-20T01:48:17;99568.34;;;5.79;100.00
9189;BME280;34313;50.780;6.084;2023-12-20T01:50:43;99569.88;;;5.84;100.00
9189;BME280;34313;50.780;6.084;2023-12-20T01:53:12;99575.94;;;5.85;100.00
9189;BME280;34313;50.780;6.084;2023-12-20T01:55:40;99578.63;;;5.83;100.00
9189;BME280;34313;50.780;6.084;2023-12-20T01:58:09;99582.53;;;5.95;100.00
9189;BME280;34313;50.780;6.084;2023-12-20T02:00:36;99577.84;;;6.05;100.00
9189;BME280;34313;50.780;6.084;2023-12-20T02:03:02;99568.28;;;6.04;100.00
9189;BME280;34313;50.780;6.084;2023-12-20T02:05:29;99574.03;;;6.14;100.00
9189;BME280;34313;50.780;6.084;2023-12-20T02:07:55;99579.31;;;6.12;100.00
9189;BME280;34313;50.780;6.084;2023-12-20T02:10:20;99580.06;;;6.16;100.00
9189;BME280;34313;50.780;6.084;2023-12-20T02:12:46;99587.78;;;6.19;100.00
9189;BME280;34313;50.780;6.084;2023-12-20T02:15:11;99582.41;;;6.22;100.00
9189;BME280;34313;50.780;6.084;2023-12-20T02:17:38;99585.75;;;6.25;100.00
9189;BME280;34313;50.780;6.084;2023-12-20T02:20:04;99585.75;;;6.25;100.00
9189;BME280;34313;50.780;6.084;2023-12-20T02:22:31;99584.88;;;6.27;100.00
9189;BME280;34313;50.780;6.084;2023-12-20T02:24:56;99578.84;;;6.24;100.00
9189;BME280;34313;50.780;6.084;2023-12-20T02:27:21;99570.94;;;6.26;100.00
9189;BME280;34313;50.780;6.084;2023-12-20T02:29:48;99572.50;;;6.30;100.00
9189;BME280;34313;50.780;6.084;2023-12-20T02:32:13;99583.81;;;6.31;100.00
9189;BME280;34313;50.780;6.084;2023-12-20T02:34:39;99576.03;;;6.29;100.00
9189;BME280;34313;50.780;6.084;2023-12-20T02:37:04;99579.00;;;6.20;100.00
9189;BME280;34313;50.780;6.084;2023-12-20T02:39:29;99581.41;;;6.26;100.00
9189;BME280;34313;50.780;6.084;2023-12-20T02:41:55;99583.09;;;6.27;100.00
9189;BME280;34313;50.780;6.084;2023-12-20T02:44:20;99582.00;;;6.33;100.00
9189;BME280;34313;50.780;6.084;2023-12-20T02:46:45;99581.25;;;6.29;100.00
9189;BME280;34313;50.780;6.084;2023-12-20T02:49:11;99579.50;;;6.30;100.00
9189;BME280;34313;50.780;6.084;2023-12-20T02:51:36;99581.47;;;6.24;100.00
9189;BME280;34313;50.780;6.084;2023-12-20T02:54:04;99579.94;;;6.19;100.00
9189;BME280;34313;50.780;6.084;2023-12-20T02:56:29;99586.84;;;6.20;100.00
9189;BME280;34313;50.780;6.084;2023-12-20T02:58:54;99582.41;;;6.22;100.00
9189;BME280;34313;50.780;6.084;2023-12-20T03:01:20;99580.28;;;6.10;100.00
9189;BME280;34313;50.780;6.084;2023-12-20T03:03:45;99590.63;;;6.13;100.00
9189;BME280;34313;50.780;6.084;2023-12-20T03:06:10;99563.00;;;6.05;100.00
9189;BME280;34313;50.780;6.084;2023-12-20T03:08:36;99589.47;;;6.20;100.00
9189;BME280;34313;50.780;6.084;2023-12-20T03:11:01;99583.44;;;6.18;100.00
9189;BME280;34313;50.780;6.084;2023-12-20T03:13:26;99580.16;;;6.13;100.00
9189;BME280;34313;50.780;6.084;2023-12-20T03:15:52;99589.41;;;6.21;100.00
9189;BME280;34313;50.780;6.084;2023-12-20T03:18:17;99578.34;;;6.15;100.00
9189;BME280;34313;50.780;6.084;2023-12-20T03:20:43;99588.84;;;6.13;100.00
9189;BME280;34313;50.780;6.084;2023-12-20T03:23:09;99582.63;;;6.17;100.00
9189;BME280;34313;50.780;6.084;2023-12-20T03:25:34;99590.53;;;6.16;100.00
9189;BME280;34313;50.780;6.084;2023-12-20T03:28:00;99570.06;;;6.03;100.00
9189;BME280;34313;50.780;6.084;2023-12-20T03:30:25;99583.69;;;6.12;100.00
9189;BME280;34313;50.780;6.084;2023-12-20T03:32:51;99590.56;;;6.14;100.00
9189;BME280;34313;50.780;6.084;2023-12-20T03:35:16;99563.56;;;6.14;100.00
9189;BME280;34313;50.780;6.084;2023-12-20T03:37:42;99579.19;;;6.15;100.00
9189;BME280;34313;50.780;6.084;2023-12-20T03:40:07;99578.34;;;6.15;100.00
9189;BME280;34313;50.780;6.084;2023-12-20T03:42:33;99586.75;;;6.23;100.00
9189;BME280;34313;50.780;6.084;2023-12-20T03:44:58;99574.72;;;6.19;100.00
9189;BME280;34313;50.780;6.084;2023-12-20T03:47:23;99585.91;;;6.22;100.00
9189;BME280;34313;50.780;6.084;2023-12-20T03:49:48;99576.66;;;6.14;100.00
9189;BME280;34313;50.780;6.084;2023-12-20T03:52:14;99576.91;;;6.06;100.00
9189;BME280;34313;50.780;6.084;2023-12-20T03:54:40;99578.13;;;5.97;100.00
9189;BME280;34313;50.780;6.084;2023-12-20T03:57:07;99569.31;;;6.00;100.00
9189;BME280;34313;50.780;6.084;2023-12-20T03:59:36;99570.97;;;6.02;100.00
9189;BME280;34313;50.780;6.084;2023-12-20T04:02:02;99570.91;;;6.04;100.00
9189;BME280;34313;50.780;6.084;2023-12-20T04:04:28;99573.78;;;5.98;100.00
9189;BME280;34313;50.780;6.084;2023-12-20T04:06:53;99568.03;;;5.86;100.00
9189;BME280;34313;50.780;6.084;2023-12-20T04:09:18;99577.88;;;5.80;100.00
9189;BME280;34313;50.780;6.084;2023-12-20T04:11:44;99581.53;;;5.76;100.00
9189;BME280;34313;50.780;6.084;2023-12-20T04:14:09;99578.03;;;5.77;100.00
9189;BME280;34313;50.780;6.084;2023-12-20T04:16:35;99565.09;;;5.72;100.00
9189;BME280;34313;50.780;6.084;2023-12-20T04:19:00;99563.44;;;5.69;100.00
9189;BME280;34313;50.780;6.084;2023-12-20T04:21:26;99564.25;;;5.72;100.00
9189;BME280;34313;50.780;6.084;2023-12-20T04:23:51;99570.16;;;5.77;100.00
9189;BME280;34313;50.780;6.084;2023-12-20T04:26:16;99567.47;;;5.78;100.00
9189;BME280;34313;50.780;6.084;2023-12-20T04:28:42;99560.91;;;5.68;100.00
9189;BME280;34313;50.780;6.084;2023-12-20T04:31:07;99566.88;;;5.72;100.00
9189;BME280;34313;50.780;6.084;2023-12-20T04:33:33;99570.44;;;5.69;100.00
9189;BME280;34313;50.780;6.084;2023-12-20T04:35:58;99569.25;;;5.78;100.00
9189;BME280;34313;50.780;6.084;2023-12-20T04:38:23;99585.91;;;5.75;100.00
9189;BME280;34313;50.780;6.084;2023-12-20T04:40:49;99581.19;;;5.85;100.00
9189;BME280;34313;50.780;6.084;2023-12-20T04:43:14;99586.31;;;5.88;100.00
9189;BME280;34313;50.780;6.084;2023-12-20T04:45:39;99586.41;;;5.85;100.00
9189;BME280;34313;50.780;6.084;2023-12-20T04:48:05;99594.16;;;5.88;100.00
9189;BME280;34313;50.780;6.084;2023-12-20T04:50:31;99580.44;;;5.81;100.00
9189;BME280;34313;50.780;6.084;2023-12-20T04:52:56;99590.50;;;5.92;100.00
9189;BME280;34313;50.780;6.084;2023-12-20T04:55:22;99583.44;;;5.94;100.00
9189;BME280;34313;50.780;6.084;2023-12-20T04:57:47;99585.06;;;5.98;100.00
9189;BME280;34313;50.780;6.084;2023-12-20T05:00:12;99585.06;;;5.98;100.00
9189;BME280;34313;50.780;6.084;2023-12-20T05:02:40;99588.59;;;5.97;100.00
9189;BME280;34313;50.780;6.084;2023-12-20T05:05:06;99584.09;;;6.01;100.00
9189;BME280;34313;50.780;6.084;2023-12-20T05:07:31;99590.50;;;5.92;100.00
9189;BME280;34313;50.780;6.084;2023-12-20T05:09:56;99603.41;;;5.98;100.00
9189;BME280;34313;50.780;6.084;2023-12-20T05:12:22;99601.41;;;6.05;100.00
9189;BME280;34313;50.780;6.084;2023-12-20T05:14:47;99585.91;;;5.99;100.00
9189;BME280;34313;50.780;6.084;2023-12-20T05:17:12;99597.91;;;6.04;100.00
9189;BME280;34313;50.780;6.084;2023-12-20T05:19:37;99597.13;;;6.02;100.00
9189;BME280;34313;50.780;6.084;2023-12-20T05:22:03;99579.75;;;6.01;100.00
9189;BME280;34313;50.780;6.084;2023-12-20T05:24:28;99571.22;;;5.95;100.00
9189;BME280;34313;50.780;6.084;2023-12-20T05:26:54;99584.88;;;6.03;100.00
9189;BME280;34313;50.780;6.084;2023-12-20T05:29:19;99590.13;;;6.03;100.00
9189;BME280;34313;50.780;6.084;2023-12-20T05:31:45;99575.25;;;6.05;100.00
9189;BME280;34313;50.780;6.084;2023-12-20T05:34:10;99575.28;;;6.03;100.00
9189;BME280;34313;50.780;6.084;2023-12-20T05:36:36;99577.66;;;6.10;100.00
9189;BME280;34313;50.780;6.084;2023-12-20T05:39:01;99574.38;;;6.04;100.00
9189;BME280;34313;50.780;6.084;2023-12-20T05:41:28;99577.84;;;6.05;100.00
9189;BME280;34313;50.780;6.084;2023-12-20T05:43:54;99579.00;;;5.98;100.00
9189;BME280;34313;50.780;6.084;2023-12-20T05:46:19;99591.00;;;6.03;100.00
9189;BME280;34313;50.780;6.084;2023-12-20T05:48:44;99588.38;;;6.03;100.00
9189;BME280;34313;50.780;6.084;2023-12-20T05:51:12;99595.25;;;6.06;100.00
9189;BME280;34313;50.780;6.084;2023-12-20T05:53:38;99604.19;;;6.00;100.00
9189;BME280;34313;50.780;6.084;2023-12-20T05:56:04;99597.13;;;6.02;100.00
9189;BME280;34313;50.780;6.084;2023-12-20T05:58:29;99604.13;;;6.02;100.00
9189;BME280;34313;50.780;6.084;2023-12-20T06:00:54;99604.69;;;6.10;100.00
9189;BME280;34313;50.780;6.084;2023-12-20T06:03:20;99593.47;;;6.06;100.00
9189;BME280;34313;50.780;6.084;2023-12-20T06:05:45;99593.31;;;6.11;100.00
9189;BME280;34313;50.780;6.084;2023-12-20T06:08:10;99593.31;;;6.11;100.00
9189;BME280;34313;50.780;6.084;2023-12-20T06:10:36;99590.78;;;6.08;100.00
9189;BME280;34313;50.780;6.084;2023-12-20T06:13:01;99587.38;;;6.06;100.00
9189;BME280;34313;50.780;6.084;2023-12-20T06:15:26;99595.28;;;6.04;100.00
9189;BME280;34313;50.780;6.084;2023-12-20T06:17:52;99607.53;;;6.04;100.00
9189;BME280;34313;50.780;6.084;2023-12-20T06:20:17;99603.41;;;5.98;100.00
9189;BME280;34313;50.780;6.084;2023-12-20T06:22:42;99600.28;;;5.87;100.00
9189;BME280;34313;50.780;6.084;2023-12-20T06:25:08;99613.19;;;5.92;100.00
9189;BME280;34313;50.780;6.084;2023-12-20T06:27:34;99616.59;;;5.94;100.00
9189;BME280;34313;50.780;6.084;2023-12-20T06:29:59;99608.03;;;5.90;100.00
9189;BME280;34313;50.780;6.084;2023-12-20T06:32:24;99613.16;;;5.93;100.00
9189;BME280;34313;50.780;6.084;2023-12-20T06:34:50;99601.84;;;5.93;100.00
9189;BME280;34313;50.780;6.084;2023-12-20T06:37:15;99616.66;;;5.92;100.00
9189;BME280;34313;50.780;6.084;2023-12-20T06:39:41;99611.31;;;5.95;100.00
9189;BME280;34313;50.780;6.084;2023-12-20T06:42:06;99613.06;;;5.96;100.00
9189;BME280;34313;50.780;6.084;2023-12-20T06:44:31;99607.84;;;5.95;100.00
9189;BME280;34313;50.780;6.084;2023-12-20T06:46:57;99610.41;;;5.98;100.00
9189;BME280;34313;50.780;6.084;2023-12-20T06:49:23;99609.56;;;5.96;100.00
9189;BME280;34313;50.780;6.084;2023-12-20T06:51:48;99606.19;;;5.92;100.00
9189;BME280;34313;50.780;6.084;2023-12-20T06:54:13;99603.28;;;6.01;100.00
9189;BME280;34313;50.780;6.084;2023-12-20T06:56:38;99613.03;;;6.20;100.00
9189;BME280;34313;50.780;6.084;2023-12-20T06:59:04;99606.28;;;6.36;100.00
9189;BME280;34313;50.780;6.084;2023-12-20T07:01:29;99621.13;;;6.36;100.00
9189;BME280;34313;50.780;6.084;2023-12-20T07:03:54;99615.28;;;6.29;100.00
9189;BME280;34313;50.780;6.084;2023-12-20T07:06:20;99607.78;;;6.20;100.00
9189;BME280;34313;50.780;6.084;2023-12-20T07:08:45;99609.84;;;6.12;100.00
9189;BME280;34313;50.780;6.084;2023-12-20T07:11:11;99616.13;;;6.08;100.00
9189;BME280;34313;50.780;6.084;2023-12-20T07:13:36;99617.84;;;6.09;100.00
9189;BME280;34313;50.780;6.084;2023-12-20T07:16:02;99607.53;;;6.04;100.00
9189;BME280;34313;50.780;6.084;2023-12-20T07:18:28;99614.53;;;6.03;100.00
9189;BME280;34313;50.780;6.084;2023-12-20T07:20:53;99609.38;;;6.02;100.00
9189;BME280;34313;50.780;6.084;2023-12-20T07:23:19;99620.50;;;6.07;100.00
9189;BME280;34313;50.780;6.084;2023-12-20T07:25:45;99624.22;;;6.01;100.00
9189;BME280;34313;50.780;6.084;2023-12-20T07:28:10;99613.25;;;5.90;100.00
9189;BME280;34313;50.780;6.084;2023-12-20T07:30:36;99615.06;;;5.88;100.00
9189;BME280;34313;50.780;6.084;2023-12-20T07:33:01;99624.44;;;5.94;100.00
9189;BME280;34313;50.780;6.084;2023-12-20T07:35:27;99610.53;;;5.93;100.00
9189;BME280;34313;50.780;6.084;2023-12-20T07:37:53;99617.31;;;5.99;100.00
9189;BME280;34313;50.780;6.084;2023-12-20T07:40:18;99628.34;;;6.07;100.00
9189;BME280;34313;50.780;6.084;2023-12-20T07:42:44;99620.56;;;6.05;100.00
9189;BME280;34313;50.780;6.084;2023-12-20T07:45:09;99617.44;;;5.94;100.00
9189;BME280;34313;50.780;6.084;2023-12-20T07:47:35;99621.47;;;6.04;100.00
9189;BME280;34313;50.780;6.084;2023-12-20T07:50:01;99610.31;;;5.99;100.00
9189;BME280;34313;50.780;6.084;2023-12-20T07:52:29;99609.78;;;5.90;100.00
9189;BME280;34313;50.780;6.084;2023-12-20T07:54:55;99612.75;;;5.80;100.00
9189;BME280;34313;50.780;6.084;2023-12-20T07:57:20;99604.53;;;5.66;100.00
9189;BME280;34313;50.780;6.084;2023-12-20T07:59:46;99605.56;;;5.62;100.00
9189;BME280;34313;50.780;6.084;2023-12-20T08:02:11;99598.16;;;5.49;100.00
9189;BME280;34313;50.780;6.084;2023-12-20T08:04:37;99614.41;;;5.59;100.00
9189;BME280;34313;50.780;6.084;2023-12-20T08:07:03;99610.78;;;5.62;100.00
9189;BME280;34313;50.780;6.084;2023-12-20T08:09:28;99612.56;;;5.61;100.00
9189;BME280;34313;50.780;6.084;2023-12-20T08:11:54;99610.94;;;5.57;100.00
9189;BME280;34313;50.780;6.084;2023-12-20T08:14:19;99608.47;;;5.54;100.00
9189;BME280;34313;50.780;6.084;2023-12-20T08:16:44;99611.09;;;5.54;100.00
9189;BME280;34313;50.780;6.084;2023-12-20T08:19:10;99604.25;;;5.50;100.00
9189;BME280;34313;50.780;6.084;2023-12-20T08:21:35;99612.97;;;5.51;100.00
9189;BME280;34313;50.780;6.084;2023-12-20T08:24:00;99603.16;;;5.56;100.00
9189;BME280;34313;50.780;6.084;2023-12-20T08:26:26;99598.50;;;5.64;100.00
9189;BME280;34313;50.780;6.084;2023-12-20T08:28:51;99595.91;;;5.64;100.00
9189;BME280;34313;50.780;6.084;2023-12-20T08:31:17;99597.22;;;5.76;100.00
9189;BME280;34313;50.780;6.084;2023-12-20T08:33:47;99599.59;;;5.82;100.00
9189;BME280;34313;50.780;6.084;2023-12-20T08:36:13;99605.44;;;5.88;100.00
9189;BME280;34313;50.780;6.084;2023-12-20T08:38:39;99612.03;;;6.00;100.00
9189;BME280;34313;50.780;6.084;2023-12-20T08:41:04;99601.41;;;6.05;100.00
9189;BME280;34313;50.780;6.084;2023-12-20T08:43:31;99602.94;;;6.11;100.00
9189;BME280;34313;50.780;6.084;2023-12-20T08:45:56;99589.94;;;6.08;100.00
9189;BME280;34313;50.780;6.084;2023-12-20T08:48:22;99595.88;;;6.13;100.00
9189;BME280;34313;50.780;6.084;2023-12-20T08:50:47;99610.72;;;6.34;100.00
9189;BME280;34313;50.780;6.084;2023-12-20T08:53:14;99609.50;;;6.43;100.00
9189;BME280;34313;50.780;6.084;2023-12-20T08:55:40;99624.72;;;6.55;100.00
9189;BME280;34313;50.780;6.084;2023-12-20T08:58:06;99623.78;;;6.58;100.00
9189;BME280;34313;50.780;6.084;2023-12-20T09:00:33;99617.81;;;6.54;100.00
9189;BME280;34313;50.780;6.084;2023-12-20T09:02:58;99620.66;;;6.48;100.00
9189;BME280;34313;50.780;6.084;2023-12-20T09:05:24;99626.56;;;6.53;100.00
9189;BME280;34313;50.780;6.084;2023-12-20T09:07:50;99633.56;;;6.53;100.00
9189;BME280;34313;50.780;6.084;2023-12-20T09:10:15;99636.94;;;6.56;100.00
9189;BME280;34313;50.780;6.084;2023-12-20T09:12:40;99630.16;;;6.51;100.00
9189;BME280;34313;50.780;6.084;2023-12-20T09:15:08;99622.53;;;6.44;100.00
9189;BME280;34313;50.780;6.084;2023-12-20T09:17:33;99629.56;;;6.44;100.00
9189;BME280;34313;50.780;6.084;2023-12-20T09:19:59;99628.09;;;6.37;100.00
9189;BME280;34313;50.780;6.084;2023-12-20T09:22:25;99617.56;;;6.38;100.00
9189;BME280;34313;50.780;6.084;2023-12-20T09:24:50;99621.59;;;6.47;100.00
9189;BME280;34313;50.780;6.084;2023-12-20T09:27:16;99621.69;;;6.44;100.00
9189;BME280;34313;50.780;6.084;2023-12-20T09:29:41;99621.66;;;6.46;100.00
9189;BME280;34313;50.780;6.084;2023-12-20T09:32:06;99610.84;;;6.53;100.00
9189;BME280;34313;50.780;6.084;2023-12-20T09:34:33;99605.69;;;6.52;100.00
9189;BME280;34313;50.780;6.084;2023-12-20T09:36:58;99599.53;;;6.53;100.00
9189;BME280;34313;50.780;6.084;2023-12-20T09:39:23;99612.50;;;6.56;100.00
9189;BME280;34313;50.780;6.084;2023-12-20T09:42:04;99590.69;;;6.55;100.00
9189;BME280;34313;50.780;6.084;2023-12-20T09:44:31;99615.59;;;6.66;100.00
9189;BME280;34313;50.780;6.084;2023-12-20T09:46:58;99601.88;;;6.81;100.00
9189;BME280;34313;50.780;6.084;2023-12-20T09:49:27;99603.72;;;6.79;100.00
9189;BME280;34313;50.780;6.084;2023-12-20T09:51:53;99601.16;;;6.77;100.00
9189;BME280;34313;50.780;6.084;2023-12-20T09:54:20;99585.13;;;6.85;100.00
9189;BME280;34313;50.780;6.084;2023-12-20T09:56:46;99613.91;;;7.07;100.00
9189;BME280;34313;50.780;6.084;2023-12-20T09:59:11;99619.09;;;7.09;100.00
9189;BME280;34313;50.780;6.084;2023-12-20T10:01:39;99627.66;;;7.12;100.00
9189;BME280;34313;50.780;6.084;2023-12-20T10:04:06;99634.47;;;7.16;100.00
9189;BME280;34313;50.780;6.084;2023-12-20T10:06:41;99620.72;;;7.11;100.00
9189;BME280;34313;50.780;6.084;2023-12-20T10:09:07;99625.66;;;7.19;100.00
9189;BME280;34313;50.780;6.084;2023-12-20T10:11:35;99623.75;;;7.23;100.00
9189;BME280;34313;50.780;6.084;2023-12-20T10:14:02;99624.00;;;7.37;100.00
9189;BME280;34313;50.780;6.084;2023-12-20T10:16:28;99620.13;;;7.46;100.00
9189;BME280;34313;50.780;6.084;2023-12-20T10:18:54;99608.31;;;7.56;100.00
9189;BME280;34313;50.780;6.084;2023-12-20T10:21:19;99604.81;;;7.55;100.00
9189;BME280;34313;50.780;6.084;2023-12-20T10:23:45;99602.78;;;7.62;100.00
9189;BME280;34313;50.780;6.084;2023-12-20T10:26:19;99585.56;;;7.56;100.00
9189;BME280;34313;50.780;6.084;2023-12-20T10:28:44;99596.75;;;7.60;100.00
9189;BME280;34313;50.780;6.084;2023-12-20T10:31:09;99582.63;;;7.44;100.00
9189;BME280;34313;50.780;6.084;2023-12-20T10:33:35;99575.13;;;7.55;100.00
9189;BME280;34313;50.780;6.084;2023-12-20T10:36:00;99575.53;;;7.46;100.00
9189;BME280;34313;50.780;6.084;2023-12-20T10:38:25;99575.91;;;7.57;100.00
9189;BME280;34313;50.780;6.084;2023-12-20T10:40:57;99564.31;;;7.63;100.00
9189;BME280;34313;50.780;6.084;2023-12-20T10:43:24;99559.31;;;7.56;100.00
9189;BME280;34313;50.780;6.084;2023-12-20T10:45:51;99568.06;;;7.76;100.00
9189;BME280;34313;50.780;6.084;2023-12-20T10:48:18;99567.16;;;7.77;100.00
9189;BME280;34313;50.780;6.084;2023-12-20T10:50:44;99555.72;;;7.78;100.00
9189;BME280;34313;50.780;6.084;2023-12-20T10:53:10;99568.78;;;7.80;100.00
9189;BME280;34313;50.780;6.084;2023-12-20T10:55:37;99577.19;;;7.67;100.00
9189;BME280;34313;50.780;6.084;2023-12-20T10:58:08;99578.22;;;7.65;100.00
9189;BME280;34313;50.780;6.084;2023-12-20T11:00:43;99577.25;;;7.66;100.00
9189;BME280;34313;50.780;6.084;2023-12-20T11:03:11;99577.81;;;7.53;100.00
9189;BME280;34313;50.780;6.084;2023-12-20T11:05:51;99576.81;;;7.37;100.00
9189;BME280;34313;50.780;6.084;2023-12-20T11:11:02;99577.94;;;7.31;100.00
9189;BME280;34313;50.780;6.084;2023-12-20T11:13:36;99573.41;;;7.35;100.00
9189;BME280;34313;50.780;6.084;2023-12-20T11:16:03;99583.88;;;7.35;100.00
9189;BME280;34313;50.780;6.084;2023-12-20T11:18:30;99591.88;;;7.32;100.00
9189;BME280;34313;50.780;6.084;2023-12-20T11:21:03;99584.00;;;7.32;100.00
9189;BME280;34313;50.780;6.084;2023-12-20T11:23:30;99576.88;;;7.35;100.00
9189;BME280;34313;50.780;6.084;2023-12-20T11:25:56;99566.66;;;7.29;100.00
9189;BME280;34313;50.780;6.084;2023-12-20T11:28:26;99557.50;;;7.38;100.00
9189;BME280;34313;50.780;6.084;2023-12-20T11:30:53;99553.13;;;7.38;100.00
9189;BME280;34313;50.780;6.084;2023-12-20T11:33:23;99549.44;;;7.43;100.00
9189;BME280;34313;50.780;6.084;2023-12-20T11:35:48;99553.38;;;7.53;100.00
9189;BME280;34313;50.780;6.084;2023-12-20T11:38:14;99530.38;;;7.39;100.00
9189;BME280;34313;50.780;6.084;2023-12-20T11:40:41;99544.34;;;7.39;100.00
9189;BME280;34313;50.780;6.084;2023-12-20T11:43:07;99536.41;;;7.41;100.00
9189;BME280;34313;50.780;6.084;2023-12-20T11:45:33;99534.56;;;7.43;100.00
9189;BME280;34313;50.780;6.084;2023-12-20T11:48:01;99529.13;;;7.48;100.00
9189;BME280;34313;50.780;6.084;2023-12-20T11:50:27;99524.78;;;7.47;100.00
9189;BME280;34313;50.780;6.084;2023-12-20T11:52:53;99533.78;;;7.41;100.00
9189;BME280;34313;50.780;6.084;2023-12-20T11:55:20;99528.28;;;7.47;100.00
9189;BME280;34313;50.780;6.084;2023-12-20T11:57:45;99538.84;;;7.46;100.00
9189;BME280;34313;50.780;6.084;2023-12-20T12:00:13;99527.75;;;7.39;100.00
9189;BME280;34313;50.780;6.084;2023-12-20T12:02:39;99535.63;;;7.39;100.00
9189;BME280;34313;50.780;6.084;2023-12-20T12:05:05;99528.66;;;7.38;100.00
9189;BME280;34313;50.780;6.084;2023-12-20T12:07:31;99519.19;;;7.35;100.00
9189;BME280;34313;50.780;6.084;2023-12-20T12:09:56;99524.97;;;7.23;100.00
9189;BME280;34313;50.780;6.084;2023-12-20T12:12:22;99522.34;;;7.23;100.00
9189;BME280;34313;50.780;6.084;2023-12-20T12:14:49;99517.75;;;7.28;100.00
9189;BME280;34313;50.780;6.084;2023-12-20T12:17:14;99515.06;;;7.30;100.00
9189;BME280;34313;50.780;6.084;2023-12-20T12:19:41;99512.31;;;7.33;100.00
9189;BME280;34313;50.780;6.084;2023-12-20T12:22:10;99507.56;;;7.41;100.00
9189;BME280;34313;50.780;6.084;2023-12-20T12:24:44;99497.84;;;7.43;100.00
9189;BME280;34313;50.780;6.084;2023-12-20T12:27:10;99496.94;;;7.44;100.00
9189;BME280;34313;50.780;6.084;2023-12-20T12:29:36;99483.41;;;7.53;100.00
9189;BME280;34313;50.780;6.084;2023-12-20T12:32:04;99472.78;;;7.56;100.00
9189;BME280;34313;50.780;6.084;2023-12-20T12:34:31;99470.09;;;7.58;100.00
9189;BME280;34313;50.780;6.084;2023-12-20T12:36:56;99466.25;;;7.65;100.00
9189;BME280;34313;50.780;6.084;2023-12-20T12:39:23;99475.41;;;7.56;100.00
9189;BME280;34313;50.780;6.084;2023-12-20T12:41:50;99485.19;;;7.72;100.00
9189;BME280;34313;50.780;6.084;2023-12-20T12:44:15;99483.06;;;7.80;100.00
9189;BME280;34313;50.780;6.084;2023-12-20T12:46:41;99479.56;;;7.80;100.00
9189;BME280;34313;50.780;6.084;2023-12-20T12:49:06;99469.44;;;7.72;100.00
9189;BME280;34313;50.780;6.084;2023-12-20T12:51:31;99467.97;;;7.66;100.00
9189;BME280;34313;50.780;6.084;2023-12-20T12:53:57;99478.94;;;7.74;100.00
9189;BME280;34313;50.780;6.084;2023-12-20T12:56:22;99457.59;;;7.82;100.00
9189;BME280;34313;50.780;6.084;2023-12-20T12:58:48;99468.03;;;7.84;100.00
9189;BME280;34313;50.780;6.084;2023-12-20T13:01:13;99470.84;;;7.79;100.00
9189;BME280;34313;50.780;6.084;2023-12-20T13:03:39;99450.34;;;7.87;100.00
9189;BME280;34313;50.780;6.084;2023-12-20T13:06:05;99466.41;;;7.99;100.00